sensor_id;sensor_type;location;lat;lon;timestamp;temperature;humidity
33207;DHT22;19565;46.602;11.534;2022-07-09T00:00:40;19.50;57.10
33207;DHT22;19565;46.602;11.534;2022-07-09T00:03:10;19.50;59.30
33207;DHT22;19565;46.602;11.534;2022-07-09T00:05:39;19.50;58.70
33207;DHT22;19565;46.602;11.534;2022-07-09T00:08:08;19.40;58.30
33207;DHT22;19565;46.602;11.534;2022-07-09T00:10:36;19.40;58.60
33207;DHT22;19565;46.602;11.534;2022-07-09T00:13:05;19.30;59.10
33207;DHT22;19565;46.602;11.534;2022-07-09T00:15:33;19.30;59.90
33207;DHT22;19565;46.602;11.534;2022-07-09T00:18:01;19.30;59.80
33207;DHT22;19565;46.602;11.534;2022-07-09T00:20:30;19.30;60.00
33207;DHT22;19565;46.602;11.534;2022-07-09T00:22:58;19.30;59.90
33207;DHT22;19565;46.602;11.534;2022-07-09T00:25:26;19.20;59.80
33207;DHT22;19565;46.602;11.534;2022-07-09T00:27:54;19.20;59.60
33207;DHT22;19565;46.602;11.534;2022-07-09T00:30:24;19.20;58.20
33207;DHT22;19565;46.602;11.534;2022-07-09T00:32:52;19.00;57.40
33207;DHT22;19565;46.602;11.534;2022-07-09T00:35:20;18.90;58.40
33207;DHT22;19565;46.602;11.534;2022-07-09T00:37:48;19.00;58.20
33207;DHT22;19565;46.602;11.534;2022-07-09T00:40:16;19.00;57.20
33207;DHT22;19565;46.602;11.534;2022-07-09T00:42:44;19.10;58.10
33207;DHT22;19565;46.602;11.534;2022-07-09T00:45:12;19.00;58.80
33207;DHT22;19565;46.602;11.534;2022-07-09T00:47:42;18.80;57.00
33207;DHT22;19565;46.602;11.534;2022-07-09T00:50:10;18.90;57.20
33207;DHT22;19565;46.602;11.534;2022-07-09T00:52:38;18.80;56.00
33207;DHT22;19565;46.602;11.534;2022-07-09T00:55:08;18.90;56.30
33207;DHT22;19565;46.602;11.534;2022-07-09T00:57:38;18.80;56.90
33207;DHT22;19565;46.602;11.534;2022-07-09T01:00:07;18.80;56.30
33207;DHT22;19565;46.602;11.534;2022-07-09T01:02:35;18.80;56.40
33207;DHT22;19565;46.602;11.534;2022-07-09T01:05:06;18.80;55.90
33207;DHT22;19565;46.602;11.534;2022-07-09T01:07:34;18.50;54.90
33207;DHT22;19565;46.602;11.534;2022-07-09T01:10:03;18.30;55.10
33207;DHT22;19565;46.602;11.534;2022-07-09T01:12:32;18.40;55.50
33207;DHT22;19565;46.602;11.534;2022-07-09T01:15:00;18.60;57.40
33207;DHT22;19565;46.602;11.534;2022-07-09T01:17:28;18.70;57.30
33207;DHT22;19565;46.602;11.534;2022-07-09T01:20:07;18.80;56.80
33207;DHT22;19565;46.602;11.534;2022-07-09T01:22:36;18.80;56.50
33207;DHT22;19565;46.602;11.534;2022-07-09T01:25:08;18.80;56.40
33207;DHT22;19565;46.602;11.534;2022-07-09T01:27:36;18.30;55.80
33207;DHT22;19565;46.602;11.534;2022-07-09T01:30:05;18.10;56.90
33207;DHT22;19565;46.602;11.534;2022-07-09T01:32:33;17.90;57.30
33207;DHT22;19565;46.602;11.534;2022-07-09T01:35:01;17.90;58.10
33207;DHT22;19565;46.602;11.534;2022-07-09T01:37:29;17.70;58.30
33207;DHT22;19565;46.602;11.534;2022-07-09T01:39:59;17.50;58.50
33207;DHT22;19565;46.602;11.534;2022-07-09T01:42:27;17.40;58.90
33207;DHT22;19565;46.602;11.534;2022-07-09T01:44:55;17.30;58.60
33207;DHT22;19565;46.602;11.534;2022-07-09T01:47:23;17.30;58.90
33207;DHT22;19565;46.602;11.534;2022-07-09T01:49:51;17.30;58.90
33207;DHT22;19565;46.602;11.534;2022-07-09T01:52:19;17.20;59.00
33207;DHT22;19565;46.602;11.534;2022-07-09T01:54:47;17.10;60.10
33207;DHT22;19565;46.602;11.534;2022-07-09T01:57:17;17.30;59.50
33207;DHT22;19565;46.602;11.534;2022-07-09T01:59:45;17.40;58.80
33207;DHT22;19565;46.602;11.534;2022-07-09T02:02:13;17.20;59.30
33207;DHT22;19565;46.602;11.534;2022-07-09T02:04:41;17.30;59.60
33207;DHT22;19565;46.602;11.534;2022-07-09T02:07:10;17.40;59.50
33207;DHT22;19565;46.602;11.534;2022-07-09T02:09:40;17.70;58.90
33207;DHT22;19565;46.602;11.534;2022-07-09T02:12:08;17.90;58.30
33207;DHT22;19565;46.602;11.534;2022-07-09T02:14:38;17.90;58.30
33207;DHT22;19565;46.602;11.534;2022-07-09T02:17:06;18.00;58.30
33207;DHT22;19565;46.602;11.534;2022-07-09T02:19:34;18.10;59.20
33207;DHT22;19565;46.602;11.534;2022-07-09T02:22:03;18.20;57.90
33207;DHT22;19565;46.602;11.534;2022-07-09T02:24:31;18.20;58.30
33207;DHT22;19565;46.602;11.534;2022-07-09T02:26:59;18.20;58.20
33207;DHT22;19565;46.602;11.534;2022-07-09T02:29:27;18.30;58.40
33207;DHT22;19565;46.602;11.534;2022-07-09T02:31:57;18.30;59.30
33207;DHT22;19565;46.602;11.534;2022-07-09T02:34:25;18.30;60.00
33207;DHT22;19565;46.602;11.534;2022-07-09T02:36:53;18.30;60.00
33207;DHT22;19565;46.602;11.534;2022-07-09T02:39:21;18.20;60.60
33207;DHT22;19565;46.602;11.534;2022-07-09T02:41:49;18.10;60.40
33207;DHT22;19565;46.602;11.534;2022-07-09T02:44:17;18.10;60.60
33207;DHT22;19565;46.602;11.534;2022-07-09T02:46:46;18.10;61.30
33207;DHT22;19565;46.602;11.534;2022-07-09T02:49:16;18.00;60.40
33207;DHT22;19565;46.602;11.534;2022-07-09T02:51:44;18.00;61.70
33207;DHT22;19565;46.602;11.534;2022-07-09T02:54:12;18.00;62.30
33207;DHT22;19565;46.602;11.534;2022-07-09T02:56:42;18.00;62.60
33207;DHT22;19565;46.602;11.534;2022-07-09T02:59:10;17.90;62.20
33207;DHT22;19565;46.602;11.534;2022-07-09T03:01:38;17.90;63.40
33207;DHT22;19565;46.602;11.534;2022-07-09T03:04:07;17.90;63.50
33207;DHT22;19565;46.602;11.534;2022-07-09T03:06:36;17.90;63.60
33207;DHT22;19565;46.602;11.534;2022-07-09T03:09:04;17.80;63.10
33207;DHT22;19565;46.602;11.534;2022-07-09T03:11:33;17.80;63.30
33207;DHT22;19565;46.602;11.534;2022-07-09T03:14:01;17.60;60.60
33207;DHT22;19565;46.602;11.534;2022-07-09T03:16:29;17.70;61.60
33207;DHT22;19565;46.602;11.534;2022-07-09T03:18:59;17.60;59.50
33207;DHT22;19565;46.602;11.534;2022-07-09T03:21:27;17.70;59.80
33207;DHT22;19565;46.602;11.534;2022-07-09T03:23:56;17.60;59.30
33207;DHT22;19565;46.602;11.534;2022-07-09T03:26:24;17.80;61.50
33207;DHT22;19565;46.602;11.534;2022-07-09T03:28:52;17.80;62.50
33207;DHT22;19565;46.602;11.534;2022-07-09T03:31:21;17.80;59.70
33207;DHT22;19565;46.602;11.534;2022-07-09T03:33:49;17.80;60.60
33207;DHT22;19565;46.602;11.534;2022-07-09T03:36:21;17.90;62.30
33207;DHT22;19565;46.602;11.534;2022-07-09T03:38:50;17.90;62.40
33207;DHT22;19565;46.602;11.534;2022-07-09T03:41:19;17.90;62.00
33207;DHT22;19565;46.602;11.534;2022-07-09T03:43:47;17.80;62.20
33207;DHT22;19565;46.602;11.534;2022-07-09T03:46:15;17.80;61.30
33207;DHT22;19565;46.602;11.534;2022-07-09T03:48:43;17.80;61.20
33207;DHT22;19565;46.602;11.534;2022-07-09T03:51:13;17.70;59.20
33207;DHT22;19565;46.602;11.534;2022-07-09T03:53:41;17.80;60.20
33207;DHT22;19565;46.602;11.534;2022-07-09T03:56:09;17.80;61.00
33207;DHT22;19565;46.602;11.534;2022-07-09T03:58:40;17.90;59.80
33207;DHT22;19565;46.602;11.534;2022-07-09T04:01:10;17.60;58.90
33207;DHT22;19565;46.602;11.534;2022-07-09T04:03:38;17.70;59.30
33207;DHT22;19565;46.602;11.534;2022-07-09T04:06:06;17.60;59.00
33207;DHT22;19565;46.602;11.534;2022-07-09T04:08:35;17.80;59.20
33207;DHT22;19565;46.602;11.534;2022-07-09T04:11:04;17.90;60.20
33207;DHT22;19565;46.602;11.534;2022-07-09T04:13:35;18.00;61.30
33207;DHT22;19565;46.602;11.534;2022-07-09T04:16:06;18.00;60.70
33207;DHT22;19565;46.602;11.534;2022-07-09T04:18:34;17.90;60.00
33207;DHT22;19565;46.602;11.534;2022-07-09T04:21:03;17.90;59.90
33207;DHT22;19565;46.602;11.534;2022-07-09T04:23:31;17.80;59.70
33207;DHT22;19565;46.602;11.534;2022-07-09T04:25:59;17.70;59.70
33207;DHT22;19565;46.602;11.534;2022-07-09T04:28:28;17.80;61.10
33207;DHT22;19565;46.602;11.534;2022-07-09T04:30:57;17.50;60.50
33207;DHT22;19565;46.602;11.534;2022-07-09T04:33:26;17.50;61.30
33207;DHT22;19565;46.602;11.534;2022-07-09T04:35:54;17.60;64.70
33207;DHT22;19565;46.602;11.534;2022-07-09T04:38:22;17.70;64.40
33207;DHT22;19565;46.602;11.534;2022-07-09T04:40:53;17.70;64.90
33207;DHT22;19565;46.602;11.534;2022-07-09T04:43:21;17.70;65.40
33207;DHT22;19565;46.602;11.534;2022-07-09T04:45:49;17.60;66.00
33207;DHT22;19565;46.602;11.534;2022-07-09T04:48:17;17.60;65.70
33207;DHT22;19565;46.602;11.534;2022-07-09T04:50:47;17.60;66.00
33207;DHT22;19565;46.602;11.534;2022-07-09T04:53:15;17.60;65.70
33207;DHT22;19565;46.602;11.534;2022-07-09T04:55:43;17.60;66.50
33207;DHT22;19565;46.602;11.534;2022-07-09T04:58:11;17.60;66.90
33207;DHT22;19565;46.602;11.534;2022-07-09T05:00:39;17.50;67.10
33207;DHT22;19565;46.602;11.534;2022-07-09T05:03:08;17.60;67.70
33207;DHT22;19565;46.602;11.534;2022-07-09T05:05:36;17.50;68.20
33207;DHT22;19565;46.602;11.534;2022-07-09T05:08:17;17.50;68.00
33207;DHT22;19565;46.602;11.534;2022-07-09T05:10:45;17.50;67.40
33207;DHT22;19565;46.602;11.534;2022-07-09T05:13:13;17.20;64.70
33207;DHT22;19565;46.602;11.534;2022-07-09T05:15:41;17.30;66.60
33207;DHT22;19565;46.602;11.534;2022-07-09T05:18:09;17.30;66.70
33207;DHT22;19565;46.602;11.534;2022-07-09T05:20:37;17.10;64.40
33207;DHT22;19565;46.602;11.534;2022-07-09T05:23:06;17.20;65.50
33207;DHT22;19565;46.602;11.534;2022-07-09T05:25:36;17.10;64.40
33207;DHT22;19565;46.602;11.534;2022-07-09T05:28:04;17.30;67.10
33207;DHT22;19565;46.602;11.534;2022-07-09T05:30:32;17.40;64.50
33207;DHT22;19565;46.602;11.534;2022-07-09T05:33:04;17.50;67.00
33207;DHT22;19565;46.602;11.534;2022-07-09T05:35:32;17.30;64.10
33207;DHT22;19565;46.602;11.534;2022-07-09T05:38:00;17.20;62.90
33207;DHT22;19565;46.602;11.534;2022-07-09T05:40:28;17.40;66.30
33207;DHT22;19565;46.602;11.534;2022-07-09T05:42:57;17.20;62.80
33207;DHT22;19565;46.602;11.534;2022-07-09T05:45:26;17.10;63.60
33207;DHT22;19565;46.602;11.534;2022-07-09T05:47:54;17.20;65.50
33207;DHT22;19565;46.602;11.534;2022-07-09T05:50:22;17.30;64.90
33207;DHT22;19565;46.602;11.534;2022-07-09T05:52:50;17.30;63.20
33207;DHT22;19565;46.602;11.534;2022-07-09T05:55:18;17.10;63.20
33207;DHT22;19565;46.602;11.534;2022-07-09T05:57:46;17.10;64.30
33207;DHT22;19565;46.602;11.534;2022-07-09T06:00:16;17.30;63.40
33207;DHT22;19565;46.602;11.534;2022-07-09T06:02:44;17.40;63.90
33207;DHT22;19565;46.602;11.534;2022-07-09T06:05:12;17.50;63.90
33207;DHT22;19565;46.602;11.534;2022-07-09T06:07:40;17.70;63.40
33207;DHT22;19565;46.602;11.534;2022-07-09T06:10:12;17.70;63.10
33207;DHT22;19565;46.602;11.534;2022-07-09T06:12:41;17.80;62.60
33207;DHT22;19565;46.602;11.534;2022-07-09T06:15:10;17.80;62.30
33207;DHT22;19565;46.602;11.534;2022-07-09T06:17:39;17.90;62.10
33207;DHT22;19565;46.602;11.534;2022-07-09T06:20:08;18.00;61.80
33207;DHT22;19565;46.602;11.534;2022-07-09T06:22:36;18.10;62.50
33207;DHT22;19565;46.602;11.534;2022-07-09T06:25:06;18.10;61.50
33207;DHT22;19565;46.602;11.534;2022-07-09T06:27:35;18.20;61.50
33207;DHT22;19565;46.602;11.534;2022-07-09T06:30:04;18.30;61.70
33207;DHT22;19565;46.602;11.534;2022-07-09T06:32:32;18.40;61.10
33207;DHT22;19565;46.602;11.534;2022-07-09T06:35:02;18.50;60.40
33207;DHT22;19565;46.602;11.534;2022-07-09T06:37:30;18.50;60.40
33207;DHT22;19565;46.602;11.534;2022-07-09T06:39:58;18.70;60.70
33207;DHT22;19565;46.602;11.534;2022-07-09T06:42:27;18.80;61.10
33207;DHT22;19565;46.602;11.534;2022-07-09T06:45:01;18.90;60.50
33207;DHT22;19565;46.602;11.534;2022-07-09T06:47:29;19.00;60.10
33207;DHT22;19565;46.602;11.534;2022-07-09T06:49:57;19.10;59.50
33207;DHT22;19565;46.602;11.534;2022-07-09T06:52:27;19.20;59.30
33207;DHT22;19565;46.602;11.534;2022-07-09T06:54:55;19.30;58.90
33207;DHT22;19565;46.602;11.534;2022-07-09T06:57:23;19.30;58.90
33207;DHT22;19565;46.602;11.534;2022-07-09T06:59:51;19.40;58.50
33207;DHT22;19565;46.602;11.534;2022-07-09T07:02:19;19.50;58.50
33207;DHT22;19565;46.602;11.534;2022-07-09T07:04:47;19.60;58.50
33207;DHT22;19565;46.602;11.534;2022-07-09T07:07:15;19.60;58.70
33207;DHT22;19565;46.602;11.534;2022-07-09T07:09:45;19.70;58.70
33207;DHT22;19565;46.602;11.534;2022-07-09T07:12:13;19.70;58.80
33207;DHT22;19565;46.602;11.534;2022-07-09T07:14:41;19.80;58.40
33207;DHT22;19565;46.602;11.534;2022-07-09T07:17:09;19.90;57.40
33207;DHT22;19565;46.602;11.534;2022-07-09T07:19:37;19.90;57.30
33207;DHT22;19565;46.602;11.534;2022-07-09T07:22:05;20.00;58.10
33207;DHT22;19565;46.602;11.534;2022-07-09T07:24:34;20.00;57.70
33207;DHT22;19565;46.602;11.534;2022-07-09T07:27:03;20.10;57.00
33207;DHT22;19565;46.602;11.534;2022-07-09T07:29:32;20.10;56.10
33207;DHT22;19565;46.602;11.534;2022-07-09T07:32:00;20.20;55.40
33207;DHT22;19565;46.602;11.534;2022-07-09T07:34:28;20.30;54.60
33207;DHT22;19565;46.602;11.534;2022-07-09T07:36:56;20.30;54.90
33207;DHT22;19565;46.602;11.534;2022-07-09T07:39:24;20.40;54.20
33207;DHT22;19565;46.602;11.534;2022-07-09T07:41:53;20.50;53.00
33207;DHT22;19565;46.602;11.534;2022-07-09T07:44:22;20.50;54.30
33207;DHT22;19565;46.602;11.534;2022-07-09T07:46:51;20.60;53.60
33207;DHT22;19565;46.602;11.534;2022-07-09T07:49:19;20.70;52.50
33207;DHT22;19565;46.602;11.534;2022-07-09T07:51:47;20.80;53.90
33207;DHT22;19565;46.602;11.534;2022-07-09T07:54:15;20.80;53.70
33207;DHT22;19565;46.602;11.534;2022-07-09T07:56:43;20.90;52.00
33207;DHT22;19565;46.602;11.534;2022-07-09T07:59:11;21.00;50.70
33207;DHT22;19565;46.602;11.534;2022-07-09T08:01:40;21.10;50.10
33207;DHT22;19565;46.602;11.534;2022-07-09T08:04:09;21.10;51.30
33207;DHT22;19565;46.602;11.534;2022-07-09T08:06:37;21.20;51.30
33207;DHT22;19565;46.602;11.534;2022-07-09T08:09:05;21.30;51.00
33207;DHT22;19565;46.602;11.534;2022-07-09T08:11:33;21.30;50.30
33207;DHT22;19565;46.602;11.534;2022-07-09T08:14:01;21.40;50.10
33207;DHT22;19565;46.602;11.534;2022-07-09T08:16:29;21.50;50.10
33207;DHT22;19565;46.602;11.534;2022-07-09T08:18:59;21.50;48.90
33207;DHT22;19565;46.602;11.534;2022-07-09T08:21:27;21.60;48.20
33207;DHT22;19565;46.602;11.534;2022-07-09T08:23:55;21.70;48.40
33207;DHT22;19565;46.602;11.534;2022-07-09T08:26:24;21.80;47.80
33207;DHT22;19565;46.602;11.534;2022-07-09T08:28:53;22.00;47.90
33207;DHT22;19565;46.602;11.534;2022-07-09T08:31:22;22.00;46.60
33207;DHT22;19565;46.602;11.534;2022-07-09T08:33:51;22.10;47.30
33207;DHT22;19565;46.602;11.534;2022-07-09T08:36:20;22.20;46.70
33207;DHT22;19565;46.602;11.534;2022-07-09T08:38:48;22.30;47.00
33207;DHT22;19565;46.602;11.534;2022-07-09T08:41:18;22.30;45.40
33207;DHT22;19565;46.602;11.534;2022-07-09T08:43:53;22.40;44.60
33207;DHT22;19565;46.602;11.534;2022-07-09T08:46:21;22.50;44.50
33207;DHT22;19565;46.602;11.534;2022-07-09T08:48:50;22.60;44.20
33207;DHT22;19565;46.602;11.534;2022-07-09T08:51:18;22.70;43.30
33207;DHT22;19565;46.602;11.534;2022-07-09T08:53:50;22.70;43.30
33207;DHT22;19565;46.602;11.534;2022-07-09T08:56:21;22.70;43.50
33207;DHT22;19565;46.602;11.534;2022-07-09T08:58:49;22.80;43.50
33207;DHT22;19565;46.602;11.534;2022-07-09T09:01:17;22.80;43.10
33207;DHT22;19565;46.602;11.534;2022-07-09T09:03:45;23.00;42.10
33207;DHT22;19565;46.602;11.534;2022-07-09T09:06:14;23.10;40.90
33207;DHT22;19565;46.602;11.534;2022-07-09T09:08:44;23.20;41.20
33207;DHT22;19565;46.602;11.534;2022-07-09T09:11:15;23.20;40.80
33207;DHT22;19565;46.602;11.534;2022-07-09T09:13:45;23.40;40.40
33207;DHT22;19565;46.602;11.534;2022-07-09T09:16:15;23.60;39.00
33207;DHT22;19565;46.602;11.534;2022-07-09T09:18:45;23.60;38.70
33207;DHT22;19565;46.602;11.534;2022-07-09T09:21:15;23.70;38.50
33207;DHT22;19565;46.602;11.534;2022-07-09T09:23:44;23.90;37.80
33207;DHT22;19565;46.602;11.534;2022-07-09T09:26:14;23.90;37.60
33207;DHT22;19565;46.602;11.534;2022-07-09T09:28:47;24.00;37.60
33207;DHT22;19565;46.602;11.534;2022-07-09T09:31:22;24.10;38.00
33207;DHT22;19565;46.602;11.534;2022-07-09T09:33:52;24.20;37.20
33207;DHT22;19565;46.602;11.534;2022-07-09T09:36:31;24.30;36.90
33207;DHT22;19565;46.602;11.534;2022-07-09T09:39:11;24.30;36.50
33207;DHT22;19565;46.602;11.534;2022-07-09T09:41:42;24.30;36.30
33207;DHT22;19565;46.602;11.534;2022-07-09T09:44:12;24.40;36.30
33207;DHT22;19565;46.602;11.534;2022-07-09T09:46:41;24.40;35.30
33207;DHT22;19565;46.602;11.534;2022-07-09T09:49:11;24.40;36.10
33207;DHT22;19565;46.602;11.534;2022-07-09T09:51:54;24.50;35.80
33207;DHT22;19565;46.602;11.534;2022-07-09T09:54:24;24.60;36.10
33207;DHT22;19565;46.602;11.534;2022-07-09T09:56:54;24.70;36.30
33207;DHT22;19565;46.602;11.534;2022-07-09T09:59:22;24.60;34.90
33207;DHT22;19565;46.602;11.534;2022-07-09T10:01:51;24.60;35.40
33207;DHT22;19565;46.602;11.534;2022-07-09T10:04:19;24.60;34.60
33207;DHT22;19565;46.602;11.534;2022-07-09T10:06:48;24.80;35.00
33207;DHT22;19565;46.602;11.534;2022-07-09T10:09:16;24.80;34.60
33207;DHT22;19565;46.602;11.534;2022-07-09T10:11:45;24.90;34.60
33207;DHT22;19565;46.602;11.534;2022-07-09T10:14:30;24.90;34.30
33207;DHT22;19565;46.602;11.534;2022-07-09T10:17:14;24.90;34.40
33207;DHT22;19565;46.602;11.534;2022-07-09T10:19:54;25.00;33.80
33207;DHT22;19565;46.602;11.534;2022-07-09T10:22:22;25.00;33.20
33207;DHT22;19565;46.602;11.534;2022-07-09T10:25:01;25.00;34.00
33207;DHT22;19565;46.602;11.534;2022-07-09T10:27:29;25.10;33.30
33207;DHT22;19565;46.602;11.534;2022-07-09T10:30:22;25.20;33.30
33207;DHT22;19565;46.602;11.534;2022-07-09T10:33:05;25.20;34.00
33207;DHT22;19565;46.602;11.534;2022-07-09T10:35:40;25.30;32.40
33207;DHT22;19565;46.602;11.534;2022-07-09T10:38:09;25.50;33.60
33207;DHT22;19565;46.602;11.534;2022-07-09T10:40:39;25.50;34.10
33207;DHT22;19565;46.602;11.534;2022-07-09T10:43:08;25.50;33.00
33207;DHT22;19565;46.602;11.534;2022-07-09T10:45:39;25.50;32.90
33207;DHT22;19565;46.602;11.534;2022-07-09T10:48:09;25.40;32.90
33207;DHT22;19565;46.602;11.534;2022-07-09T10:50:40;25.40;32.50
33207;DHT22;19565;46.602;11.534;2022-07-09T10:53:09;25.40;32.90
33207;DHT22;19565;46.602;11.534;2022-07-09T10:55:42;25.50;32.50
33207;DHT22;19565;46.602;11.534;2022-07-09T10:58:18;25.50;32.60
33207;DHT22;19565;46.602;11.534;2022-07-09T11:00:55;25.60;31.10
33207;DHT22;19565;46.602;11.534;2022-07-09T11:03:24;25.80;30.30
33207;DHT22;19565;46.602;11.534;2022-07-09T11:05:53;25.80;29.50
33207;DHT22;19565;46.602;11.534;2022-07-09T11:08:22;25.80;30.80
33207;DHT22;19565;46.602;11.534;2022-07-09T11:10:50;26.00;29.50
33207;DHT22;19565;46.602;11.534;2022-07-09T11:13:23;25.90;29.30
33207;DHT22;19565;46.602;11.534;2022-07-09T11:15:59;26.00;30.00
33207;DHT22;19565;46.602;11.534;2022-07-09T11:18:28;26.00;30.40
33207;DHT22;19565;46.602;11.534;2022-07-09T11:20:57;26.20;29.20
33207;DHT22;19565;46.602;11.534;2022-07-09T11:23:25;26.20;29.20
33207;DHT22;19565;46.602;11.534;2022-07-09T11:25:53;26.30;29.40
33207;DHT22;19565;46.602;11.534;2022-07-09T11:28:22;26.30;29.10
33207;DHT22;19565;46.602;11.534;2022-07-09T11:30:59;26.40;29.90
33207;DHT22;19565;46.602;11.534;2022-07-09T11:33:28;26.30;28.10
33207;DHT22;19565;46.602;11.534;2022-07-09T11:36:17;26.20;29.00
33207;DHT22;19565;46.602;11.534;2022-07-09T11:38:48;26.40;29.10
33207;DHT22;19565;46.602;11.534;2022-07-09T11:41:17;26.40;28.70
33207;DHT22;19565;46.602;11.534;2022-07-09T11:43:46;26.40;29.10
33207;DHT22;19565;46.602;11.534;2022-07-09T11:46:17;26.40;29.50
33207;DHT22;19565;46.602;11.534;2022-07-09T11:48:50;26.50;29.20
33207;DHT22;19565;46.602;11.534;2022-07-09T11:51:28;26.50;29.30
33207;DHT22;19565;46.602;11.534;2022-07-09T11:53:56;26.60;29.10
33207;DHT22;19565;46.602;11.534;2022-07-09T11:56:24;26.70;30.00
33207;DHT22;19565;46.602;11.534;2022-07-09T11:58:53;26.80;29.90
33207;DHT22;19565;46.602;11.534;2022-07-09T12:01:24;26.80;29.80
33207;DHT22;19565;46.602;11.534;2022-07-09T12:03:52;26.90;29.20
33207;DHT22;19565;46.602;11.534;2022-07-09T12:06:21;26.90;30.00
33207;DHT22;19565;46.602;11.534;2022-07-09T12:08:58;26.90;29.50
33207;DHT22;19565;46.602;11.534;2022-07-09T12:11:27;26.90;29.70
33207;DHT22;19565;46.602;11.534;2022-07-09T12:13:56;26.90;29.60
33207;DHT22;19565;46.602;11.534;2022-07-09T12:16:25;26.90;29.50
33207;DHT22;19565;46.602;11.534;2022-07-09T12:18:53;26.90;29.60
33207;DHT22;19565;46.602;11.534;2022-07-09T12:21:23;26.90;30.00
33207;DHT22;19565;46.602;11.534;2022-07-09T12:23:52;27.00;30.00
33207;DHT22;19565;46.602;11.534;2022-07-09T12:26:20;27.00;29.70
33207;DHT22;19565;46.602;11.534;2022-07-09T12:28:48;27.00;29.20
33207;DHT22;19565;46.602;11.534;2022-07-09T12:31:24;26.90;29.50
33207;DHT22;19565;46.602;11.534;2022-07-09T12:33:52;27.10;29.20
33207;DHT22;19565;46.602;11.534;2022-07-09T12:36:21;27.10;29.90
33207;DHT22;19565;46.602;11.534;2022-07-09T12:39:09;27.20;29.80
33207;DHT22;19565;46.602;11.534;2022-07-09T12:41:37;27.30;29.50
33207;DHT22;19565;46.602;11.534;2022-07-09T12:44:05;27.40;27.60
33207;DHT22;19565;46.602;11.534;2022-07-09T12:46:35;27.40;28.70
33207;DHT22;19565;46.602;11.534;2022-07-09T12:49:04;27.40;29.20
33207;DHT22;19565;46.602;11.534;2022-07-09T12:51:32;27.30;28.00
33207;DHT22;19565;46.602;11.534;2022-07-09T12:54:00;27.40;27.90
33207;DHT22;19565;46.602;11.534;2022-07-09T12:56:29;27.40;27.90
33207;DHT22;19565;46.602;11.534;2022-07-09T12:59:17;27.40;28.00
33207;DHT22;19565;46.602;11.534;2022-07-09T13:01:47;27.40;28.10
33207;DHT22;19565;46.602;11.534;2022-07-09T13:04:15;27.40;28.30
33207;DHT22;19565;46.602;11.534;2022-07-09T13:06:44;27.50;26.40
33207;DHT22;19565;46.602;11.534;2022-07-09T13:09:12;27.60;25.80
33207;DHT22;19565;46.602;11.534;2022-07-09T13:11:40;27.70;25.80
33207;DHT22;19565;46.602;11.534;2022-07-09T13:14:08;27.70;26.30
33207;DHT22;19565;46.602;11.534;2022-07-09T13:16:37;27.60;26.60
33207;DHT22;19565;46.602;11.534;2022-07-09T13:19:06;27.60;27.00
33207;DHT22;19565;46.602;11.534;2022-07-09T13:21:34;27.50;27.00
33207;DHT22;19565;46.602;11.534;2022-07-09T13:24:02;27.40;27.30
33207;DHT22;19565;46.602;11.534;2022-07-09T13:26:31;27.30;27.80
33207;DHT22;19565;46.602;11.534;2022-07-09T13:29:02;27.30;28.40
33207;DHT22;19565;46.602;11.534;2022-07-09T13:31:31;27.20;28.40
33207;DHT22;19565;46.602;11.534;2022-07-09T13:33:59;27.30;28.80
33207;DHT22;19565;46.602;11.534;2022-07-09T13:36:29;27.30;28.50
33207;DHT22;19565;46.602;11.534;2022-07-09T13:38:57;27.40;29.20
33207;DHT22;19565;46.602;11.534;2022-07-09T13:41:26;27.40;29.00
33207;DHT22;19565;46.602;11.534;2022-07-09T13:43:54;27.50;28.40
33207;DHT22;19565;46.602;11.534;2022-07-09T13:46:22;27.50;27.90
33207;DHT22;19565;46.602;11.534;2022-07-09T13:48:50;27.60;27.90
33207;DHT22;19565;46.602;11.534;2022-07-09T13:51:18;27.60;28.40
33207;DHT22;19565;46.602;11.534;2022-07-09T13:53:47;27.60;27.50
33207;DHT22;19565;46.602;11.534;2022-07-09T13:56:15;27.60;28.20
33207;DHT22;19565;46.602;11.534;2022-07-09T13:58:46;27.70;27.90
33207;DHT22;19565;46.602;11.534;2022-07-09T14:01:15;27.80;28.00
33207;DHT22;19565;46.602;11.534;2022-07-09T14:03:43;27.80;28.50
33207;DHT22;19565;46.602;11.534;2022-07-09T14:06:12;27.80;28.20
33207;DHT22;19565;46.602;11.534;2022-07-09T14:09:01;27.80;28.20
33207;DHT22;19565;46.602;11.534;2022-07-09T14:11:29;27.80;28.40
33207;DHT22;19565;46.602;11.534;2022-07-09T14:13:57;27.90;27.50
33207;DHT22;19565;46.602;11.534;2022-07-09T14:16:27;27.90;27.20
33207;DHT22;19565;46.602;11.534;2022-07-09T14:18:55;27.90;27.20
33207;DHT22;19565;46.602;11.534;2022-07-09T14:21:23;27.90;27.40
33207;DHT22;19565;46.602;11.534;2022-07-09T14:23:51;28.00;27.50
33207;DHT22;19565;46.602;11.534;2022-07-09T14:26:20;28.30;27.50
33207;DHT22;19565;46.602;11.534;2022-07-09T14:28:49;28.70;26.70
33207;DHT22;19565;46.602;11.534;2022-07-09T14:31:17;29.30;26.30
33207;DHT22;19565;46.602;11.534;2022-07-09T14:33:46;30.40;25.70
33207;DHT22;19565;46.602;11.534;2022-07-09T14:36:14;31.60;24.90
33207;DHT22;19565;46.602;11.534;2022-07-09T14:38:42;32.40;23.60
33207;DHT22;19565;46.602;11.534;2022-07-09T14:41:10;32.70;23.30
33207;DHT22;19565;46.602;11.534;2022-07-09T14:43:39;33.70;23.00
33207;DHT22;19565;46.602;11.534;2022-07-09T14:46:07;34.90;22.30
33207;DHT22;19565;46.602;11.534;2022-07-09T14:48:36;35.50;21.50
33207;DHT22;19565;46.602;11.534;2022-07-09T14:51:05;35.70;21.80
33207;DHT22;19565;46.602;11.534;2022-07-09T14:53:33;35.50;21.90
33207;DHT22;19565;46.602;11.534;2022-07-09T14:56:09;35.80;21.60
33207;DHT22;19565;46.602;11.534;2022-07-09T14:58:39;36.00;21.10
33207;DHT22;19565;46.602;11.534;2022-07-09T15:01:08;36.10;21.10
33207;DHT22;19565;46.602;11.534;2022-07-09T15:03:36;36.30;21.20
33207;DHT22;19565;46.602;11.534;2022-07-09T15:06:05;36.30;21.00
33207;DHT22;19565;46.602;11.534;2022-07-09T15:08:33;36.30;20.90
33207;DHT22;19565;46.602;11.534;2022-07-09T15:11:01;36.50;20.70
33207;DHT22;19565;46.602;11.534;2022-07-09T15:13:29;37.10;21.00
33207;DHT22;19565;46.602;11.534;2022-07-09T15:15:59;36.80;20.80
33207;DHT22;19565;46.602;11.534;2022-07-09T15:18:27;37.00;21.10
33207;DHT22;19565;46.602;11.534;2022-07-09T15:20:55;37.10;21.20
33207;DHT22;19565;46.602;11.534;2022-07-09T15:23:23;37.40;20.80
33207;DHT22;19565;46.602;11.534;2022-07-09T15:25:51;37.20;20.70
33207;DHT22;19565;46.602;11.534;2022-07-09T15:28:19;37.10;20.90